sensor_id;sensor_type;location;lat;lon;timestamp;pressure;altitude;pressure_sealevel;temperature;humidity
63535;BME280;55128;50.230;18.944;2023-08-24T00:04:40;98729.38;;;15.27;89.66
63535;BME280;55128;50.230;18.944;2023-08-24T00:09:40;98728.19;;;15.19;89.75
63535;BME280;55128;50.230;18.944;2023-08-24T00:14:41;98728.84;;;15.08;89.91
63535;BME280;55128;50.230;18.944;2023-08-24T00:19:42;98736.09;;;15.06;89.98
63535;BME280;55128;50.230;18.944;2023-08-24T00:24:42;98733.25;;;14.94;89.97
63535;BME280;55128;50.230;18.944;2023-08-24T00:29:42;98732.09;;;14.99;89.90
63535;BME280;55128;50.230;18.944;2023-08-24T00:34:43;98732.56;;;14.91;90.36
63535;BME280;55128;50.230;18.944;2023-08-24T00:39:43;98734.66;;;14.86;90.33
63535;BME280;55128;50.230;18.944;2023-08-24T00:44:44;98726.38;;;14.90;90.58
63535;BME280;55128;50.230;18.944;2023-08-24T00:49:44;98723.31;;;14.68;90.83
63535;BME280;55128;50.230;18.944;2023-08-24T00:54:44;98716.69;;;14.59;90.35
63535;BME280;55128;50.230;18.944;2023-08-24T00:59:45;98722.97;;;14.58;90.47
63535;BME280;55128;50.230;18.944;2023-08-24T01:04:47;98728.59;;;14.53;90.03
63535;BME280;55128;50.230;18.944;2023-08-24T01:09:47;98728.56;;;14.39;90.65
63535;BME280;55128;50.230;18.944;2023-08-24T01:15:17;98719.00;;;14.35;90.41
63535;BME280;55128;50.230;18.944;2023-08-24T01:20:19;98727.09;;;14.33;90.32
63535;BME280;55128;50.230;18.944;2023-08-24T01:25:36;98731.97;;;14.27;90.63
63535;BME280;55128;50.230;18.944;2023-08-24T01:30:37;98728.69;;;14.22;90.37
63535;BME280;55128;50.230;18.944;2023-08-24T01:35:38;98716.53;;;14.02;91.14
63535;BME280;55128;50.230;18.944;2023-08-24T01:40:51;98728.06;;;14.02;91.03
63535;BME280;55128;50.230;18.944;2023-08-24T01:45:55;98718.63;;;13.96;90.61
63535;BME280;55128;50.230;18.944;2023-08-24T01:50:57;98718.72;;;14.09;90.79
63535;BME280;55128;50.230;18.944;2023-08-24T01:55:58;98719.63;;;13.94;90.88
63535;BME280;55128;50.230;18.944;2023-08-24T02:00:58;98718.03;;;13.91;90.60
63535;BME280;55128;50.230;18.944;2023-08-24T02:05:58;98714.66;;;13.88;90.47
63535;BME280;55128;50.230;18.944;2023-08-24T02:10:59;98713.56;;;13.76;90.59
63535;BME280;55128;50.230;18.944;2023-08-24T02:16:07;98714.00;;;13.68;90.51
63535;BME280;55128;50.230;18.944;2023-08-24T02:21:09;98716.09;;;13.63;90.83
63535;BME280;55128;50.230;18.944;2023-08-24T02:26:11;98718.91;;;13.60;90.83
63535;BME280;55128;50.230;18.944;2023-08-24T02:31:11;98709.44;;;13.54;90.72
63535;BME280;55128;50.230;18.944;2023-08-24T02:36:12;98708.78;;;13.67;90.79
63535;BME280;55128;50.230;18.944;2023-08-24T02:41:12;98706.09;;;13.51;90.75
63535;BME280;55128;50.230;18.944;2023-08-24T02:46:14;98698.44;;;13.45;91.40
63535;BME280;55128;50.230;18.944;2023-08-24T02:51:14;98709.81;;;13.48;91.10
63535;BME280;55128;50.230;18.944;2023-08-24T02:56:15;98714.44;;;13.45;91.06
63535;BME280;55128;50.230;18.944;2023-08-24T03:01:15;98705.59;;;13.44;91.34
63535;BME280;55128;50.230;18.944;2023-08-24T03:06:15;98710.75;;;13.31;91.90
63535;BME280;55128;50.230;18.944;2023-08-24T03:11:16;98717.63;;;13.35;91.52
63535;BME280;55128;50.230;18.944;2023-08-24T03:16:16;98719.47;;;13.17;91.00
63535;BME280;55128;50.230;18.944;2023-08-24T03:21:17;98717.69;;;13.18;90.46
63535;BME280;55128;50.230;18.944;2023-08-24T03:26:17;98713.97;;;13.05;91.24
63535;BME280;55128;50.230;18.944;2023-08-24T03:31:20;98714.97;;;13.02;90.84
63535;BME280;55128;50.230;18.944;2023-08-24T03:36:20;98721.16;;;13.02;90.98
63535;BME280;55128;50.230;18.944;2023-08-24T03:41:21;98713.09;;;13.04;91.34
63535;BME280;55128;50.230;18.944;2023-08-24T03:46:21;98721.56;;;13.12;91.34
63535;BME280;55128;50.230;18.944;2023-08-24T03:51:21;98719.13;;;13.08;91.02
63535;BME280;55128;50.230;18.944;2023-08-24T03:56:22;98724.81;;;13.17;90.58
63535;BME280;55128;50.230;18.944;2023-08-24T04:01:22;98727.72;;;13.13;90.97
63535;BME280;55128;50.230;18.944;2023-08-24T04:06:22;98716.63;;;13.05;91.04
63535;BME280;55128;50.230;18.944;2023-08-24T04:11:23;98721.56;;;13.12;91.06
63535;BME280;55128;50.230;18.944;2023-08-24T04:16:23;98724.94;;;13.32;91.06
63535;BME280;55128;50.230;18.944;2023-08-24T04:21:23;98731.56;;;13.40;91.06
63535;BME280;55128;50.230;18.944;2023-08-24T04:26:24;98737.59;;;13.44;90.98
63535;BME280;55128;50.230;18.944;2023-08-24T04:31:24;98722.44;;;13.60;90.99
63535;BME280;55128;50.230;18.944;2023-08-24T04:36:25;98725.94;;;13.77;90.83
63535;BME280;55128;50.230;18.944;2023-08-24T04:41:25;98726.34;;;14.01;90.37
63535;BME280;55128;50.230;18.944;2023-08-24T04:46:25;98722.50;;;14.21;90.02
63535;BME280;55128;50.230;18.944;2023-08-24T04:51:26;98727.53;;;14.42;90.28
63535;BME280;55128;50.230;18.944;2023-08-24T04:56:28;98725.28;;;15.36;89.89
63535;BME280;55128;50.230;18.944;2023-08-24T05:01:28;98727.53;;;17.15;87.96
63535;BME280;55128;50.230;18.944;2023-08-24T05:06:30;98734.59;;;18.74;83.11
63535;BME280;55128;50.230;18.944;2023-08-24T05:11:30;98735.63;;;19.52;73.13
63535;BME280;55128;50.230;18.944;2023-08-24T05:16:31;98740.41;;;20.68;70.00
63535;BME280;55128;50.230;18.944;2023-08-24T05:21:31;98739.22;;;21.64;62.81
63535;BME280;55128;50.230;18.944;2023-08-24T05:26:31;98751.22;;;22.20;60.13
63535;BME280;55128;50.230;18.944;2023-08-24T05:31:32;98763.00;;;23.54;56.25
63535;BME280;55128;50.230;18.944;2023-08-24T05:36:32;98765.47;;;24.21;56.21
63535;BME280;55128;50.230;18.944;2023-08-24T05:41:33;98756.59;;;25.77;51.04
63535;BME280;55128;50.230;18.944;2023-08-24T05:46:33;98760.16;;;26.37;47.47
63535;BME280;55128;50.230;18.944;2023-08-24T05:51:34;98761.00;;;27.44;45.26
63535;BME280;55128;50.230;18.944;2023-08-24T05:56:34;98763.09;;;27.26;45.76
63535;BME280;55128;50.230;18.944;2023-08-24T06:01:34;98769.03;;;28.40;44.28
63535;BME280;55128;50.230;18.944;2023-08-24T06:06:38;98771.31;;;28.82;42.85
63535;BME280;55128;50.230;18.944;2023-08-24T06:11:38;98771.53;;;29.78;39.90
63535;BME280;55128;50.230;18.944;2023-08-24T06:16:40;98773.72;;;31.27;37.07
63535;BME280;55128;50.230;18.944;2023-08-24T06:21:41;98777.69;;;31.25;36.32
63535;BME280;55128;50.230;18.944;2023-08-24T06:26:41;98785.38;;;32.61;34.59
63535;BME280;55128;50.230;18.944;2023-08-24T06:31:42;98779.41;;;31.95;35.93
63535;BME280;55128;50.230;18.944;2023-08-24T06:36:42;98776.41;;;31.49;35.07
63535;BME280;55128;50.230;18.944;2023-08-24T06:41:42;98778.16;;;34.89;29.34
63535;BME280;55128;50.230;18.944;2023-08-24T06:46:43;98783.72;;;35.94;28.14
63535;BME280;55128;50.230;18.944;2023-08-24T06:51:43;98790.97;;;35.95;27.84
63535;BME280;55128;50.230;18.944;2023-08-24T06:56:43;98785.16;;;36.64;26.77
63535;BME280;55128;50.230;18.944;2023-08-24T07:01:44;98785.88;;;35.92;27.91
63535;BME280;55128;50.230;18.944;2023-08-24T07:06:44;98778.72;;;35.29;28.46
63535;BME280;55128;50.230;18.944;2023-08-24T07:11:44;98785.41;;;36.32;27.43
63535;BME280;55128;50.230;18.944;2023-08-24T07:16:45;98791.09;;;38.62;24.57
63535;BME280;55128;50.230;18.944;2023-08-24T07:21:45;98784.47;;;37.46;25.61
63535;BME280;55128;50.230;18.944;2023-08-24T07:26:46;98780.09;;;38.84;22.99
63535;BME280;55128;50.230;18.944;2023-08-24T07:31:46;98788.19;;;39.92;21.89
63535;BME280;55128;50.230;18.944;2023-08-24T07:36:47;98796.38;;;39.09;22.22
63535;BME280;55128;50.230;18.944;2023-08-24T07:41:48;98799.53;;;39.69;21.98
63535;BME280;55128;50.230;18.944;2023-08-24T07:46:49;98800.78;;;40.98;19.67
63535;BME280;55128;50.230;18.944;2023-08-24T07:51:49;98801.63;;;41.69;19.30
63535;BME280;55128;50.230;18.944;2023-08-24T07:56:50;98808.09;;;41.05;20.43
63535;BME280;55128;50.230;18.944;2023-08-24T08:01:50;98798.91;;;39.83;22.30
63535;BME280;55128;50.230;18.944;2023-08-24T08:06:50;98807.63;;;41.18;20.49
63535;BME280;55128;50.230;18.944;2023-08-24T08:11:51;98792.03;;;39.69;21.81
63535;BME280;55128;50.230;18.944;2023-08-24T08:16:51;98800.69;;;40.88;20.98
63535;BME280;55128;50.230;18.944;2023-08-24T08:21:52;98812.97;;;43.55;18.87
63535;BME280;55128;50.230;18.944;2023-08-24T08:26:52;98814.06;;;42.67;18.72
63535;BME280;55128;50.230;18.944;2023-08-24T08:31:52;98807.91;;;42.70;18.68
63535;BME280;55128;50.230;18.944;2023-08-24T08:36:53;98805.75;;;40.64;20.16
63535;BME280;55128;50.230;18.944;2023-08-24T08:41:53;98800.03;;;42.51;17.94
63535;BME280;55128;50.230;18.944;2023-08-24T08:46:53;98801.84;;;44.31;16.42
63535;BME280;55128;50.230;18.944;2023-08-24T08:51:54;98814.03;;;45.00;16.07
63535;BME280;55128;50.230;18.944;2023-08-24T08:56:55;98804.50;;;45.35;16.05
63535;BME280;55128;50.230;18.944;2023-08-24T09:01:56;98809.66;;;45.18;15.96
63535;BME280;55128;50.230;18.944;2023-08-24T09:06:57;98798.34;;;44.99;15.10
63535;BME280;55128;50.230;18.944;2023-08-24T09:11:57;98803.16;;;44.93;15.81
63535;BME280;55128;50.230;18.944;2023-08-24T09:16:58;98804.41;;;45.11;15.24
63535;BME280;55128;50.230;18.944;2023-08-24T09:21:59;98807.50;;;46.22;14.03
63535;BME280;55128;50.230;18.944;2023-08-24T09:27:14;98797.66;;;45.71;14.52
63535;BME280;55128;50.230;18.944;2023-08-24T09:32:14;98792.13;;;45.66;14.83
63535;BME280;55128;50.230;18.944;2023-08-24T09:37:15;98787.94;;;44.99;15.12
63535;BME280;55128;50.230;18.944;2023-08-24T09:42:24;98786.47;;;45.42;14.35
63535;BME280;55128;50.230;18.944;2023-08-24T09:47:24;98782.38;;;43.95;13.86
63535;BME280;55128;50.230;18.944;2023-08-24T09:52:31;98780.81;;;41.87;16.46
63535;BME280;55128;50.230;18.944;2023-08-24T09:57:38;98773.78;;;42.47;15.31
63535;BME280;55128;50.230;18.944;2023-08-24T10:02:49;98758.47;;;39.76;17.27
63535;BME280;55128;50.230;18.944;2023-08-24T10:07:52;98756.94;;;38.61;19.02
63535;BME280;55128;50.230;18.944;2023-08-24T10:12:59;98751.31;;;36.62;22.25
63535;BME280;55128;50.230;18.944;2023-08-24T10:18:01;98744.81;;;35.40;22.82
63535;BME280;55128;50.230;18.944;2023-08-24T10:23:02;98742.72;;;35.36;23.45
63535;BME280;55128;50.230;18.944;2023-08-24T10:28:03;98734.63;;;33.82;25.02
63535;BME280;55128;50.230;18.944;2023-08-24T10:33:05;98731.00;;;33.88;25.64
63535;BME280;55128;50.230;18.944;2023-08-24T10:38:06;98723.03;;;33.60;25.09
63535;BME280;55128;50.230;18.944;2023-08-24T10:43:06;98723.94;;;33.47;26.04
63535;BME280;55128;50.230;18.944;2023-08-24T10:48:10;98725.56;;;32.08;28.45
63535;BME280;55128;50.230;18.944;2023-08-24T10:53:37;98711.28;;;32.32;27.13
63535;BME280;55128;50.230;18.944;2023-08-24T10:58:37;98714.50;;;31.88;27.61
63535;BME280;55128;50.230;18.944;2023-08-24T11:03:38;98712.41;;;31.90;26.67
63535;BME280;55128;50.230;18.944;2023-08-24T11:08:47;98695.69;;;31.78;26.90
63535;BME280;55128;50.230;18.944;2023-08-24T11:19:19;98684.28;;;31.39;27.36
63535;BME280;55128;50.230;18.944;2023-08-24T11:24:20;98690.00;;;31.10;28.60
63535;BME280;55128;50.230;18.944;2023-08-24T11:29:20;98683.09;;;31.49;27.90
63535;BME280;55128;50.230;18.944;2023-08-24T11:34:20;98675.63;;;30.73;28.98
63535;BME280;55128;50.230;18.944;2023-08-24T11:39:22;98667.22;;;30.81;29.62
63535;BME280;55128;50.230;18.944;2023-08-24T11:44:24;98670.94;;;31.30;29.30
63535;BME280;55128;50.230;18.944;2023-08-24T11:49:24;98666.09;;;30.97;30.23
63535;BME280;55128;50.230;18.944;2023-08-24T11:54:25;98662.38;;;31.11;29.70
63535;BME280;55128;50.230;18.944;2023-08-24T11:59:25;98654.53;;;31.02;29.92
63535;BME280;55128;50.230;18.944;2023-08-24T12:04:26;98654.03;;;30.91;30.66
63535;BME280;55128;50.230;18.944;2023-08-24T12:09:29;98652.38;;;30.69;31.01
63535;BME280;55128;50.230;18.944;2023-08-24T12:14:39;98639.16;;;30.29;31.69
63535;BME280;55128;50.230;18.944;2023-08-24T12:19:57;98642.75;;;30.51;31.09
63535;BME280;55128;50.230;18.944;2023-08-24T12:24:59;98638.34;;;30.50;30.22
63535;BME280;55128;50.230;18.944;2023-08-24T12:30:02;98647.22;;;30.87;29.96
63535;BME280;55128;50.230;18.944;2023-08-24T12:35:03;98630.03;;;31.00;30.17
63535;BME280;55128;50.230;18.944;2023-08-24T12:40:05;98623.59;;;30.30;30.07
63535;BME280;55128;50.230;18.944;2023-08-24T12:45:06;98626.31;;;30.51;30.71
63535;BME280;55128;50.230;18.944;2023-08-24T12:50:06;98626.72;;;30.27;29.96
63535;BME280;55128;50.230;18.944;2023-08-24T12:55:07;98606.31;;;29.13;32.00
63535;BME280;55128;50.230;18.944;2023-08-24T13:00:08;98599.50;;;29.60;31.55
63535;BME280;55128;50.230;18.944;2023-08-24T13:05:09;98596.06;;;30.16;31.86
63535;BME280;55128;50.230;18.944;2023-08-24T13:10:09;98590.56;;;30.16;30.38
63535;BME280;55128;50.230;18.944;2023-08-24T13:15:10;98583.09;;;29.82;31.95
63535;BME280;55128;50.230;18.944;2023-08-24T13:20:11;98572.56;;;29.79;31.54
63535;BME280;55128;50.230;18.944;2023-08-24T13:25:12;98565.00;;;29.81;30.99
63535;BME280;55128;50.230;18.944;2023-08-24T13:30:13;98581.31;;;30.17;30.12
63535;BME280;55128;50.230;18.944;2023-08-24T13:35:13;98576.66;;;30.11;29.90
63535;BME280;55128;50.230;18.944;2023-08-24T13:40:13;98568.72;;;30.45;30.08
63535;BME280;55128;50.230;18.944;2023-08-24T13:45:14;98563.03;;;30.46;28.79
63535;BME280;55128;50.230;18.944;2023-08-24T13:50:34;98560.13;;;30.26;29.02
63535;BME280;55128;50.230;18.944;2023-08-24T13:55:56;98553.94;;;30.17;28.08
63535;BME280;55128;50.230;18.944;2023-08-24T14:00:59;98546.41;;;29.76;28.74
63535;BME280;55128;50.230;18.944;2023-08-24T14:11:50;98544.00;;;29.88;28.40
63535;BME280;55128;50.230;18.944;2023-08-24T14:16:55;98536.31;;;29.98;30.68
63535;BME280;55128;50.230;18.944;2023-08-24T14:21:56;98534.66;;;29.82;29.92
63535;BME280;55128;50.230;18.944;2023-08-24T14:26:58;98544.78;;;29.60;29.87
63535;BME280;55128;50.230;18.944;2023-08-24T14:31:58;98544.25;;;29.72;31.00
63535;BME280;55128;50.230;18.944;2023-08-24T14:36:59;98554.22;;;30.01;30.61
63535;BME280;55128;50.230;18.944;2023-08-24T14:41:59;98546.00;;;30.29;30.27
63535;BME280;55128;50.230;18.944;2023-08-24T14:46:59;98545.72;;;30.39;32.04
63535;BME280;55128;50.230;18.944;2023-08-24T14:51:59;98547.66;;;30.23;31.04
63535;BME280;55128;50.230;18.944;2023-08-24T14:57:00;98539.16;;;30.33;31.00
63535;BME280;55128;50.230;18.944;2023-08-24T15:02:03;98531.81;;;29.91;30.68
63535;BME280;55128;50.230;18.944;2023-08-24T15:07:08;98518.38;;;29.96;33.45
63535;BME280;55128;50.230;18.944;2023-08-24T15:12:08;98512.00;;;29.89;35.69
63535;BME280;55128;50.230;18.944;2023-08-24T15:17:09;98506.00;;;29.57;35.12
63535;BME280;55128;50.230;18.944;2023-08-24T15:22:09;98497.00;;;29.41;34.83
63535;BME280;55128;50.230;18.944;2023-08-24T15:27:09;98500.06;;;29.32;34.60
63535;BME280;55128;50.230;18.944;2023-08-24T15:32:10;98483.53;;;28.88;35.26
63535;BME280;55128;50.230;18.944;2023-08-24T15:37:11;98480.84;;;28.74;33.81
63535;BME280;55128;50.230;18.944;2023-08-24T15:42:12;98484.63;;;28.58;37.63
63535;BME280;55128;50.230;18.944;2023-08-24T15:47:12;98469.16;;;28.20;39.61
63535;BME280;55128;50.230;18.944;2023-08-24T15:52:13;98479.41;;;28.03;44.60
63535;BME280;55128;50.230;18.944;2023-08-24T15:57:13;98473.94;;;27.65;45.93
63535;BME280;55128;50.230;18.944;2023-08-24T16:02:14;98465.28;;;27.62;43.41
63535;BME280;55128;50.230;18.944;2023-08-24T16:07:15;98459.22;;;27.28;43.35
63535;BME280;55128;50.230;18.944;2023-08-24T16:12:15;98457.91;;;26.93;48.12
63535;BME280;55128;50.230;18.944;2023-08-24T16:17:16;98440.47;;;26.71;50.67
63535;BME280;55128;50.230;18.944;2023-08-24T16:22:17;98428.31;;;26.50;52.51
63535;BME280;55128;50.230;18.944;2023-08-24T16:27:17;98436.72;;;26.32;52.89
63535;BME280;55128;50.230;18.944;2023-08-24T16:32:17;98433.72;;;26.11;52.37
63535;BME280;55128;50.230;18.944;2023-08-24T16:37:18;98434.72;;;26.18;50.93
63535;BME280;55128;50.230;18.944;2023-08-24T16:42:18;98432.16;;;26.16;51.56
63535;BME280;55128;50.230;18.944;2023-08-24T16:47:19;98420.69;;;25.73;53.12
63535;BME280;55128;50.230;18.944;2023-08-24T16:52:19;98423.97;;;25.36;51.20
63535;BME280;55128;50.230;18.944;2023-08-24T16:57:19;98419.53;;;25.43;47.62
63535;BME280;55128;50.230;18.944;2023-08-24T17:02:20;98410.69;;;25.49;47.39
63535;BME280;55128;50.230;18.944;2023-08-24T17:07:20;98424.28;;;25.41;49.40
63535;BME280;55128;50.230;18.944;2023-08-24T17:12:23;98420.34;;;25.11;49.80
63535;BME280;55128;50.230;18.944;2023-08-24T17:17:23;98422.88;;;24.96;50.56
63535;BME280;55128;50.230;18.944;2023-08-24T17:22:24;98428.44;;;24.86;57.59
63535;BME280;55128;50.230;18.944;2023-08-24T17:27:29;98421.72;;;24.48;59.74
63535;BME280;55128;50.230;18.944;2023-08-24T17:32:32;98415.47;;;24.21;60.68
63535;BME280;55128;50.230;18.944;2023-08-24T17:37:32;98416.72;;;24.00;63.01
63535;BME280;55128;50.230;18.944;2023-08-24T17:42:32;98423.63;;;23.68;65.11
63535;BME280;55128;50.230;18.944;2023-08-24T17:47:33;98430.50;;;23.37;65.93
63535;BME280;55128;50.230;18.944;2023-08-24T17:52:34;98446.25;;;23.33;66.40
63535;BME280;55128;50.230;18.944;2023-08-24T17:57:34;98457.44;;;22.84;68.97
63535;BME280;55128;50.230;18.944;2023-08-24T18:02:35;98463.56;;;22.59;70.73
63535;BME280;55128;50.230;18.944;2023-08-24T18:07:35;98467.34;;;22.38;72.04
63535;BME280;55128;50.230;18.944;2023-08-24T18:12:36;98465.97;;;22.24;71.83
63535;BME280;55128;50.230;18.944;2023-08-24T18:17:36;98481.78;;;22.29;72.33
63535;BME280;55128;50.230;18.944;2023-08-24T18:22:40;98477.34;;;21.90;74.10
63535;BME280;55128;50.230;18.944;2023-08-24T18:27:40;98482.34;;;21.76;73.87
63535;BME280;55128;50.230;18.944;2023-08-24T18:32:40;98471.22;;;21.40;74.83
63535;BME280;55128;50.230;18.944;2023-08-24T18:37:41;98466.28;;;21.25;74.80
63535;BME280;55128;50.230;18.944;2023-08-24T18:42:41;98459.88;;;21.16;74.96
63535;BME280;55128;50.230;18.944;2023-08-24T18:47:41;98459.31;;;21.13;75.11
63535;BME280;55128;50.230;18.944;2023-08-24T18:52:42;98443.38;;;20.90;75.10
63535;BME280;55128;50.230;18.944;2023-08-24T18:57:42;98443.81;;;20.86;74.96
63535;BME280;55128;50.230;18.944;2023-08-24T19:02:42;98437.03;;;20.51;75.30
63535;BME280;55128;50.230;18.944;2023-08-24T19:07:43;98436.13;;;20.31;75.85
63535;BME280;55128;50.230;18.944;2023-08-24T19:12:43;98432.97;;;20.16;76.65
63535;BME280;55128;50.230;18.944;2023-08-24T19:17:46;98428.78;;;20.33;75.68
63535;BME280;55128;50.230;18.944;2023-08-24T19:22:46;98434.06;;;20.13;75.94
63535;BME280;55128;50.230;18.944;2023-08-24T19:27:47;98426.22;;;20.00;76.09
63535;BME280;55128;50.230;18.944;2023-08-24T19:32:47;98431.84;;;19.88;76.70
63535;BME280;55128;50.230;18.944;2023-08-24T19:37:48;98429.56;;;19.62;77.14
63535;BME280;55128;50.230;18.944;2023-08-24T19:42:48;98441.75;;;19.66;77.09
63535;BME280;55128;50.230;18.944;2023-08-24T19:47:49;98439.22;;;19.43;77.10
63535;BME280;55128;50.230;18.944;2023-08-24T19:52:49;98437.03;;;19.37;77.71
63535;BME280;55128;50.230;18.944;2023-08-24T19:57:49;98423.38;;;19.29;77.66
63535;BME280;55128;50.230;18.944;2023-08-24T20:02:50;98423.19;;;19.21;78.09
63535;BME280;55128;50.230;18.944;2023-08-24T20:07:54;98416.47;;;19.15;77.78
63535;BME280;55128;50.230;18.944;2023-08-24T20:12:54;98417.06;;;18.98;78.64
63535;BME280;55128;50.230;18.944;2023-08-24T20:17:54;98422.94;;;18.92;78.99
63535;BME280;55128;50.230;18.944;2023-08-24T20:22:55;98427.25;;;18.83;78.94
63535;BME280;55128;50.230;18.944;2023-08-24T20:27:58;98420.50;;;18.89;78.68
63535;BME280;55128;50.230;18.944;2023-08-24T20:32:59;98426.75;;;18.89;78.70
63535;BME280;55128;50.230;18.944;2023-08-24T20:38:17;98434.09;;;18.76;79.03
63535;BME280;55128;50.230;18.944;2023-08-24T20:48:49;98424.34;;;18.63;79.37
63535;BME280;55128;50.230;18.944;2023-08-24T20:54:49;98425.25;;;18.53;79.95
63535;BME280;55128;50.230;18.944;2023-08-24T20:59:55;98421.47;;;18.44;80.56
63535;BME280;55128;50.230;18.944;2023-08-24T21:05:35;98411.56;;;18.44;79.99
63535;BME280;55128;50.230;18.944;2023-08-24T21:10:51;98412.56;;;18.32;80.45
63535;BME280;55128;50.230;18.944;2023-08-24T21:15:57;98405.97;;;18.25;80.97
63535;BME280;55128;50.230;18.944;2023-08-24T21:20:58;98399.78;;;18.13;81.19
63535;BME280;55128;50.230;18.944;2023-08-24T21:25:58;98387.19;;;18.14;81.52
63535;BME280;55128;50.230;18.944;2023-08-24T21:31:00;98378.50;;;18.21;81.06
63535;BME280;55128;50.230;18.944;2023-08-24T21:36:01;98367.16;;;18.18;81.07
63535;BME280;55128;50.230;18.944;2023-08-24T21:41:03;98370.69;;;18.18;80.91
63535;BME280;55128;50.230;18.944;2023-08-24T21:46:04;98360.22;;;18.04;81.36
63535;BME280;55128;50.230;18.944;2023-08-24T21:51:04;98373.66;;;18.04;81.82
63535;BME280;55128;50.230;18.944;2023-08-24T21:56:04;98377.19;;;17.93;81.98
63535;BME280;55128;50.230;18.944;2023-08-24T22:01:06;98369.25;;;17.92;81.81
63535;BME280;55128;50.230;18.944;2023-08-24T22:06:07;98364.88;;;17.91;81.79
63535;BME280;55128;50.230;18.944;2023-08-24T22:11:07;98356.22;;;17.87;81.99
63535;BME280;55128;50.230;18.944;2023-08-24T22:16:08;98345.59;;;17.85;82.17
63535;BME280;55128;50.230;18.944;2023-08-24T22:21:08;98334.56;;;17.88;82.05
63535;BME280;55128;50.230;18.944;2023-08-24T22:26:09;98326.28;;;17.92;82.17
63535;BME280;55128;50.230;18.944;2023-08-24T22:31:09;98324.81;;;17.76;82.92
63535;BME280;55128;50.230;18.944;2023-08-24T22:36:11;98303.94;;;18.02;81.84
63535;BME280;55128;50.230;18.944;2023-08-24T22:41:12;98306.00;;;17.76;82.73
63535;BME280;55128;50.230;18.944;2023-08-24T22:46:12;98291.75;;;17.87;82.32
63535;BME280;55128;50.230;18.944;2023-08-24T22:51:13;98290.16;;;17.84;82.05
63535;BME280;55128;50.230;18.944;2023-08-24T22:56:13;98297.44;;;17.82;81.70
63535;BME280;55128;50.230;18.944;2023-08-24T23:01:17;98309.66;;;17.75;82.28
63535;BME280;55128;50.230;18.944;2023-08-24T23:06:21;98318.22;;;17.69;82.29
63535;BME280;55128;50.230;18.944;2023-08-24T23:11:21;98317.84;;;17.62;83.46
63535;BME280;55128;50.230;18.944;2023-08-24T23:16:22;98321.28;;;17.64;84.04
63535;BME280;55128;50.230;18.944;2023-08-24T23:21:22;98319.44;;;17.54;83.73
63535;BME280;55128;50.230;18.944;2023-08-24T23:26:22;98307.97;;;17.52;83.98
63535;BME280;55128;50.230;18.944;2023-08-24T23:31:23;98318.72;;;17.52;83.81
63535;BME280;55128;50.230;18.944;2023-08-24T23:36:23;98324.09;;;17.40;83.54
63535;BME280;55128;50.230;18.944;2023-08-24T23:41:23;98332.59;;;17.34;83.83
63535;BME280;55128;50.230;18.944;2023-08-24T23:46:24;98331.63;;;17.24;84.05
63535;BME280;55128;50.230;18.944;2023-08-24T23:51:24;98308.94;;;17.28;84.40
63535;BME280;55128;50.230;18.944;2023-08-24T23:56:24;98306.13;;;17.29;84.42
